Time;durP1;ratioP1;P1;durP2;ratioP2;P2;SDS_P1;SDS_P2;PMS_P1;PMS_P2;Temp;Humidity;BMP_temperature;BMP_pressure;BME280_temperature;BME280_humidity;BME280_pressure;Samples;Min_cycle;Max_cycle;Signal;HPM_P1;HPM_P2
2023/05/14 00:01:25;;;;;;;8.45;4.38;;;15.20;84.60;;;;;;5033870;28;20125;-69
2023/05/14 00:03:50;;;;;;;8.25;4.32;;;15.20;85.70;;;;;;5033916;28;20049;-70
2023/05/14 00:06:16;;;;;;;9.85;3.97;;;15.20;86.40;;;;;;5016626;28;20400;-69
2023/05/14 00:08:42;;;;;;;10.35;4.25;;;15.10;86.70;;;;;;5016456;28;20033;-69
2023/05/14 00:11:10;;;;;;;12.13;4.43;;;14.80;88.30;;;;;;5034180;28;20029;-69
2023/05/14 00:13:36;;;;;;;10.50;4.45;;;14.80;88.90;;;;;;5033711;28;20037;-70
2023/05/14 00:16:02;;;;;;;6.20;4.20;;;14.80;89.40;;;;;;5033692;28;20045;-69
2023/05/14 00:18:28;;;;;;;8.25;4.35;;;14.70;89.80;;;;;;5033312;28;20452;-69
2023/05/14 00:20:53;;;;;;;7.13;4.72;;;14.70;90.30;;;;;;5033504;28;20374;-69
2023/05/14 00:23:23;;;;;;;7.80;4.25;;;14.60;90.60;;;;;;5016196;28;20083;-69
2023/05/14 00:25:49;;;;;;;10.77;4.47;;;14.60;90.40;;;;;;5033538;28;20037;-69
2023/05/14 00:28:15;;;;;;;7.72;4.93;;;14.60;90.80;;;;;;5033353;28;20679;-70
2023/05/14 00:30:40;;;;;;;9.48;4.78;;;14.60;91.00;;;;;;5033309;28;20124;-70
2023/05/14 00:33:06;;;;;;;9.65;4.55;;;14.60;91.10;;;;;;5033304;28;20044;-69
2023/05/14 00:35:34;;;;;;;6.75;4.55;;;14.50;91.40;;;;;;5033997;28;20051;-69
2023/05/14 00:38:01;;;;;;;7.43;4.65;;;14.40;91.90;;;;;;5033425;28;20130;-69
2023/05/14 00:40:27;;;;;;;6.85;4.00;;;14.50;91.70;;;;;;5033199;28;20036;-69
2023/05/14 00:42:54;;;;;;;9.00;4.50;;;14.50;91.90;;;;;;5033107;28;20095;-69
2023/05/14 00:45:20;;;;;;;7.10;4.63;;;14.50;92.10;;;;;;5033429;28;20243;-69
2023/05/14 00:47:46;;;;;;;9.38;4.85;;;14.40;92.30;;;;;;5015386;28;20390;-69
2023/05/14 00:50:13;;;;;;;9.48;3.97;;;14.30;92.50;;;;;;5032848;28;20665;-69
2023/05/14 00:52:39;;;;;;;6.22;4.18;;;14.30;92.70;;;;;;5033076;28;20121;-69
2023/05/14 00:55:06;;;;;;;8.23;4.60;;;14.30;93.00;;;;;;5015973;28;20030;-69
2023/05/14 00:57:33;;;;;;;9.77;4.65;;;14.20;93.10;;;;;;5034146;28;20033;-68
2023/05/14 00:59:58;;;;;;;7.93;4.75;;;14.30;93.20;;;;;;5034335;28;20017;-69
2023/05/14 01:02:25;;;;;;;16.83;5.07;;;14.30;93.20;;;;;;5034217;28;20112;-69
2023/05/14 01:04:51;;;;;;;9.68;4.95;;;14.30;93.30;;;;;;5033798;28;20483;-69
2023/05/14 01:07:22;;;;;;;18.63;5.72;;;14.30;93.40;;;;;;5038111;28;20046;-69
2023/05/14 01:10:07;;;;;;;11.10;4.63;;;14.20;93.60;;;;;;5018007;28;20030;-70
2023/05/14 01:13:10;;;;;;;7.70;4.47;;;14.20;93.60;;;;;;5034495;28;20022;-68
2023/05/14 01:15:38;;;;;;;9.55;5.32;;;14.20;93.80;;;;;;5033854;28;20029;-69
2023/05/14 01:18:07;;;;;;;11.93;5.25;;;14.20;93.90;;;;;;5034342;28;20123;-69
2023/05/14 01:20:33;;;;;;;7.72;5.15;;;14.20;93.90;;;;;;5036618;28;20032;-70
2023/05/14 01:22:59;;;;;;;7.28;4.85;;;14.10;94.20;;;;;;5037054;28;20132;-68
2023/05/14 01:25:26;;;;;;;9.38;5.22;;;14.20;94.00;;;;;;5019414;28;20502;-69
2023/05/14 01:28:18;;;;;;;10.23;4.63;;;14.20;93.90;;;;;;5036854;28;20447;-68
2023/05/14 01:31:00;;;;;;;12.68;5.47;;;14.30;93.90;;;;;;5014046;28;20053;-69
2023/05/14 01:33:29;;;;;;;11.23;5.45;;;14.30;93.80;;;;;;5015179;28;20038;-69
2023/05/14 01:35:57;;;;;;;8.25;4.90;;;14.30;94.10;;;;;;5013081;28;20026;-69
2023/05/14 01:38:24;;;;;;;11.43;4.97;;;14.10;94.50;;;;;;5013763;28;20022;-68
2023/05/14 01:40:50;;;;;;;10.15;4.90;;;14.00;94.90;;;;;;5013053;28;20472;-69
2023/05/14 01:43:16;;;;;;;9.10;5.32;;;13.90;95.30;;;;;;5012729;28;20038;-69
2023/05/14 01:45:42;;;;;;;7.95;4.93;;;13.80;95.60;;;;;;5012453;28;20034;-69
2023/05/14 01:48:08;;;;;;;8.65;5.45;;;13.70;95.70;;;;;;5012640;28;20090;-70
2023/05/14 01:50:34;;;;;;;8.32;5.13;;;13.80;95.70;;;;;;5013605;28;20065;-69
2023/05/14 01:52:59;;;;;;;9.10;5.38;;;13.80;95.70;;;;;;5012956;28;20034;-69
2023/05/14 01:55:25;;;;;;;12.18;5.40;;;13.90;95.70;;;;;;5011372;28;20038;-69
2023/05/14 01:57:52;;;;;;;11.45;5.47;;;13.90;95.70;;;;;;5012509;28;20177;-68
2023/05/14 02:00:18;;;;;;;10.65;5.68;;;13.80;95.90;;;;;;5011079;28;20058;-70
2023/05/14 02:02:44;;;;;;;8.52;4.70;;;13.80;96.00;;;;;;5012226;28;20033;-69
2023/05/14 02:05:10;;;;;;;14.23;5.65;;;13.80;95.90;;;;;;5011436;28;20026;-69
2023/05/14 02:07:36;;;;;;;11.65;5.57;;;13.80;96.10;;;;;;5012007;28;20109;-69
2023/05/14 02:10:02;;;;;;;10.35;5.63;;;13.70;96.30;;;;;;5010964;28;20360;-70
2023/05/14 02:12:28;;;;;;;8.75;5.18;;;13.70;96.40;;;;;;5012122;28;20155;-70
2023/05/14 02:14:53;;;;;;;11.23;5.47;;;13.60;96.70;;;;;;5011157;28;20125;-70
2023/05/14 02:17:19;;;;;;;10.50;5.25;;;13.50;96.90;;;;;;5012457;28;20129;-70
2023/05/14 02:19:45;;;;;;;9.55;5.90;;;13.50;97.10;;;;;;5011914;28;20030;-70
2023/05/14 02:22:11;;;;;;;9.48;5.50;;;13.40;97.20;;;;;;5011615;28;20041;-70
2023/05/14 02:24:37;;;;;;;9.60;5.13;;;13.40;97.40;;;;;;5011704;28;20491;-70
2023/05/14 02:27:03;;;;;;;11.55;5.38;;;13.40;97.40;;;;;;5012056;28;20034;-70
2023/05/14 02:29:28;;;;;;;9.13;5.45;;;13.30;97.50;;;;;;5012281;28;20053;-71
2023/05/14 02:31:55;;;;;;;10.18;5.35;;;13.30;97.70;;;;;;5030805;28;20038;-71
2023/05/14 02:34:21;;;;;;;9.75;4.75;;;13.30;97.70;;;;;;5031186;28;20126;-71
2023/05/14 02:36:47;;;;;;;9.75;5.53;;;13.20;97.80;;;;;;5031122;28;20134;-70
2023/05/14 02:39:12;;;;;;;8.48;4.95;;;13.20;97.90;;;;;;5031105;28;20045;-70
2023/05/14 02:41:38;;;;;;;13.52;5.07;;;13.20;98.00;;;;;;5031512;28;20033;-71
2023/05/14 02:44:04;;;;;;;11.38;5.47;;;13.20;98.00;;;;;;5031126;28;20033;-70
2023/05/14 02:46:30;;;;;;;9.63;5.18;;;13.10;98.20;;;;;;5030877;28;20030;-70
2023/05/14 02:48:56;;;;;;;6.55;5.28;;;13.10;98.10;;;;;;5031000;28;20022;-70
2023/05/14 02:51:22;;;;;;;8.80;5.28;;;13.10;98.20;;;;;;5031074;28;20026;-70
2023/05/14 02:53:47;;;;;;;9.73;5.28;;;13.00;98.30;;;;;;5030911;28;20025;-71
2023/05/14 02:56:13;;;;;;;9.05;5.60;;;13.00;98.40;;;;;;5031420;28;20017;-71
2023/05/14 02:58:39;;;;;;;9.55;5.78;;;13.00;98.40;;;;;;5030758;28;20053;-71
2023/05/14 03:01:05;;;;;;;9.25;5.22;;;13.00;98.60;;;;;;5030837;28;20029;-72
2023/05/14 03:03:31;;;;;;;9.85;5.53;;;12.80;98.50;;;;;;5030678;28;20029;-72
2023/05/14 03:05:57;;;;;;;11.55;5.30;;;12.80;98.70;;;;;;5030621;28;20083;-71
2023/05/14 03:08:22;;;;;;;8.95;5.53;;;13.00;98.70;;;;;;5031215;28;20037;-71
2023/05/14 03:10:48;;;;;;;8.63;5.18;;;12.90;98.70;;;;;;5030279;28;20435;-71
2023/05/14 03:13:19;;;;;;;12.75;6.05;;;12.90;98.70;;;;;;5030237;28;20037;-71
2023/05/14 03:15:45;;;;;;;12.50;6.72;;;12.90;98.70;;;;;;5013172;28;20042;-71
2023/05/14 03:18:12;;;;;;;8.38;5.53;;;12.90;98.80;;;;;;5030616;28;20052;-70
2023/05/14 03:20:38;;;;;;;11.05;7.60;;;12.90;98.80;;;;;;5030977;28;20022;-70
2023/05/14 03:23:04;;;;;;;7.45;5.63;;;12.90;98.80;;;;;;5030433;28;20446;-70
2023/05/14 03:25:29;;;;;;;8.68;6.10;;;12.80;98.90;;;;;;5030306;28;20022;-70
2023/05/14 03:27:55;;;;;;;10.68;5.70;;;12.80;98.90;;;;;;5030275;28;20047;-70
2023/05/14 03:30:21;;;;;;;11.82;5.28;;;12.80;98.80;;;;;;5030091;28;20090;-70
2023/05/14 03:32:47;;;;;;;7.95;5.80;;;12.80;98.80;;;;;;5030784;28;20328;-70
2023/05/14 03:35:12;;;;;;;13.35;6.00;;;12.70;99.00;;;;;;5030916;28;20021;-69
2023/05/14 03:37:38;;;;;;;12.38;5.97;;;12.70;99.20;;;;;;5030206;28;20030;-71
2023/05/14 03:40:05;;;;;;;8.25;5.20;;;12.60;99.20;;;;;;5030493;28;20029;-70
2023/05/14 03:42:30;;;;;;;8.35;5.50;;;12.60;99.40;;;;;;5030359;28;20041;-71
2023/05/14 03:44:56;;;;;;;11.43;6.25;;;12.50;99.50;;;;;;5030124;28;20060;-71
2023/05/14 03:47:21;;;;;;;12.63;5.57;;;12.60;99.50;;;;;;5030978;28;20034;-71
2023/05/14 03:49:47;;;;;;;10.20;5.18;;;12.60;99.40;;;;;;5030181;28;20033;-71
2023/05/14 03:52:13;;;;;;;7.72;5.25;;;12.60;99.40;;;;;;5012884;28;20117;-72
2023/05/14 03:54:40;;;;;;;6.80;4.72;;;12.50;99.50;;;;;;5030208;28;20533;-70
2023/05/14 03:57:05;;;;;;;11.15;5.60;;;12.50;99.60;;;;;;5030462;28;20333;-72
2023/05/14 03:59:31;;;;;;;6.57;5.38;;;12.50;99.50;;;;;;5030732;28;20080;-71
2023/05/14 04:01:57;;;;;;;8.65;5.63;;;12.60;99.50;;;;;;5030175;28;20376;-70
2023/05/14 04:04:23;;;;;;;7.53;5.38;;;12.50;99.70;;;;;;5012365;28;20037;-72
2023/05/14 04:06:48;;;;;;;7.65;4.70;;;12.50;99.80;;;;;;5012711;28;20037;-70
2023/05/14 04:09:14;;;;;;;8.90;4.95;;;12.50;99.90;;;;;;5030124;28;20030;-72
2023/05/14 04:11:39;;;;;;;9.93;4.55;;;12.50;99.80;;;;;;5012458;28;20026;-72
2023/05/14 04:14:05;;;;;;;10.32;4.45;;;12.60;99.80;;;;;;5030910;28;20083;-70
2023/05/14 04:16:31;;;;;;;10.27;5.05;;;12.70;99.70;;;;;;5029910;28;20124;-70
2023/05/14 04:18:57;;;;;;;14.50;6.28;;;12.70;99.80;;;;;;5029904;28;20029;-71
2023/05/14 04:21:22;;;;;;;8.52;5.47;;;12.60;99.70;;;;;;5029813;28;20498;-71
2023/05/14 04:23:49;;;;;;;8.60;5.32;;;12.60;99.90;;;;;;5013065;28;20517;-70
2023/05/14 04:26:15;;;;;;;12.25;5.45;;;12.60;99.90;;;;;;5034259;28;20029;-71
2023/05/14 04:28:41;;;;;;;10.45;4.70;;;12.60;99.90;;;;;;5033722;28;20029;-70
2023/05/14 04:31:06;;;;;;;9.20;4.72;;;12.60;99.90;;;;;;5012515;28;20038;-71
2023/05/14 04:33:32;;;;;;;9.73;5.63;;;12.60;99.90;;;;;;5012752;28;20034;-71
2023/05/14 04:35:57;;;;;;;6.20;4.38;;;12.70;99.90;;;;;;5012631;28;20037;-71
2023/05/14 04:38:23;;;;;;;7.90;4.60;;;12.70;99.90;;;;;;5014175;28;20033;-71
2023/05/14 04:40:49;;;;;;;7.13;5.00;;;12.60;99.90;;;;;;5013910;28;20503;-72
2023/05/14 04:43:16;;;;;;;7.70;4.78;;;12.70;99.90;;;;;;5013542;28;20040;-71
2023/05/14 04:45:41;;;;;;;7.65;4.93;;;12.70;99.90;;;;;;5012656;28;20037;-71
2023/05/14 04:48:07;;;;;;;4.97;4.32;;;12.80;99.90;;;;;;5012474;28;20021;-71
2023/05/14 04:50:33;;;;;;;9.63;4.85;;;12.90;99.90;;;;;;5012718;28;20022;-71
2023/05/14 04:52:59;;;;;;;7.78;5.30;;;12.90;99.90;;;;;;5012763;28;20044;-71
2023/05/14 04:55:26;;;;;;;6.28;4.55;;;12.90;99.90;;;;;;5013233;28;20033;-72
2023/05/14 04:57:51;;;;;;;11.50;5.10;;;13.00;99.90;;;;;;5012485;28;20104;-71
2023/05/14 05:00:18;;;;;;;6.32;4.40;;;13.10;99.90;;;;;;5013527;28;20041;-71
2023/05/14 05:02:43;;;;;;;6.43;4.30;;;13.20;99.90;;;;;;5013501;28;20347;-70
2023/05/14 05:05:09;;;;;;;8.23;5.20;;;13.20;99.90;;;;;;5013859;28;20101;-70
2023/05/14 05:07:35;;;;;;;8.18;4.43;;;13.40;99.20;;;;;;5013239;28;20113;-70
2023/05/14 05:10:01;;;;;;;7.03;4.70;;;13.50;99.30;;;;;;5013005;28;20038;-70
2023/05/14 05:12:29;;;;;;;9.88;5.05;;;13.50;99.40;;;;;;5013147;28;20034;-70
2023/05/14 05:14:56;;;;;;;7.20;4.75;;;13.60;99.60;;;;;;5013150;28;20026;-70
2023/05/14 05:17:22;;;;;;;7.20;4.70;;;13.50;99.60;;;;;;5012357;28;20372;-71
2023/05/14 05:19:48;;;;;;;9.32;4.50;;;13.60;99.50;;;;;;5011967;28;20245;-69
2023/05/14 05:22:14;;;;;;;5.88;3.80;;;13.60;99.80;;;;;;5018040;28;20022;-69
2023/05/14 05:24:40;;;;;;;7.38;3.97;;;13.60;99.50;;;;;;5012567;28;20044;-71
2023/05/14 05:27:06;;;;;;;10.15;5.05;;;13.80;99.50;;;;;;5012731;28;20170;-71
2023/05/14 05:29:31;;;;;;;6.60;3.92;;;13.80;98.90;;;;;;5013417;28;20045;-70
2023/05/14 05:31:57;;;;;;;8.13;4.32;;;13.90;98.50;;;;;;5032286;28;20442;-70
2023/05/14 05:34:23;;;;;;;7.68;3.75;;;14.00;98.60;;;;;;5031936;28;20602;-69
2023/05/14 05:36:49;;;;;;;8.38;4.30;;;14.00;98.70;;;;;;5032175;28;20319;-69
2023/05/14 05:39:15;;;;;;;9.63;4.80;;;14.10;98.70;;;;;;5032353;28;20356;-70
2023/05/14 05:41:42;;;;;;;6.22;4.32;;;14.10;99.00;;;;;;5014685;28;20025;-69
2023/05/14 05:44:07;;;;;;;9.20;4.30;;;14.20;98.50;;;;;;5032631;28;20030;-69
2023/05/14 05:46:33;;;;;;;6.15;4.20;;;14.30;98.10;;;;;;5033156;28;20033;-69
2023/05/14 05:48:59;;;;;;;7.55;4.25;;;14.50;97.60;;;;;;5032707;28;20452;-70
2023/05/14 05:51:24;;;;;;;9.27;4.45;;;14.70;97.50;;;;;;5014647;28;20116;-69
2023/05/14 05:53:50;;;;;;;5.60;4.00;;;14.90;97.40;;;;;;5032048;28;20032;-68
2023/05/14 05:56:16;;;;;;;7.20;3.97;;;15.20;96.90;;;;;;5032443;28;20091;-68
2023/05/14 05:58:42;;;;;;;9.65;3.60;;;15.60;96.50;;;;;;5031976;28;20045;-68
2023/05/14 06:01:07;;;;;;;7.15;3.30;;;15.90;96.00;;;;;;5032051;28;20040;-69
2023/05/14 06:03:33;;;;;;;9.18;3.67;;;16.20;96.10;;;;;;5031664;28;20069;-67
2023/05/14 06:05:59;;;;;;;7.13;3.85;;;16.40;96.10;;;;;;5014173;28;20052;-69
2023/05/14 06:08:24;;;;;;;4.90;3.60;;;16.70;95.70;;;;;;5032109;28;20048;-70
2023/05/14 06:10:50;;;;;;;4.70;3.72;;;17.00;94.90;;;;;;5031728;28;20477;-69
2023/05/14 06:13:16;;;;;;;5.07;3.80;;;17.30;94.00;;;;;;5031664;28;20048;-71
2023/05/14 06:15:41;;;;;;;8.50;4.72;;;17.80;93.70;;;;;;5031739;28;20460;-72
2023/05/14 06:18:07;;;;;;;9.98;6.30;;;17.90;92.80;;;;;;5031729;28;20029;-71
2023/05/14 06:20:33;;;;;;;7.28;4.35;;;18.20;92.60;;;;;;5014596;28;20435;-70
2023/05/14 06:22:59;;;;;;;8.32;3.90;;;18.50;92.40;;;;;;5013971;28;20034;-70
2023/05/14 06:25:25;;;;;;;6.40;3.90;;;18.60;91.90;;;;;;5031392;28;20057;-71
2023/05/14 06:27:50;;;;;;;4.05;3.53;;;18.90;91.70;;;;;;5000763;28;20141;-70
2023/05/14 06:30:16;;;;;;;6.38;3.83;;;19.40;91.20;;;;;;5011742;28;20129;-70
2023/05/14 06:32:41;;;;;;;6.07;4.18;;;19.40;90.50;;;;;;5010617;28;20133;-70
2023/05/14 06:35:08;;;;;;;9.52;4.38;;;19.40;90.50;;;;;;5011840;28;20037;-70
2023/05/14 06:37:33;;;;;;;8.25;3.92;;;19.30;90.60;;;;;;5011648;28;20397;-70
2023/05/14 06:40:00;;;;;;;10.43;3.60;;;19.30;90.30;;;;;;5011294;28;20516;-70
2023/05/14 06:42:26;;;;;;;7.30;3.97;;;19.40;90.50;;;;;;5011390;28;20026;-69
2023/05/14 06:44:51;;;;;;;10.27;3.92;;;19.60;89.90;;;;;;5011295;28;20475;-72
2023/05/14 06:47:17;;;;;;;5.40;4.30;;;19.80;89.30;;;;;;5010872;28;20025;-72
2023/05/14 06:49:43;;;;;;;9.27;4.22;;;19.90;88.30;;;;;;5011186;28;20600;-70
2023/05/14 06:52:08;;;;;;;8.07;4.13;;;20.00;87.70;;;;;;5011108;28;20111;-70
2023/05/14 06:54:34;;;;;;;5.53;3.78;;;20.10;87.70;;;;;;5011112;28;20385;-70
2023/05/14 06:57:00;;;;;;;4.20;3.28;;;20.20;86.90;;;;;;5011545;28;20460;-69
2023/05/14 06:59:26;;;;;;;7.47;4.07;;;20.20;86.30;;;;;;4994269;28;20401;-72
2023/05/14 07:01:51;;;;;;;5.50;4.25;;;20.30;86.60;;;;;;4993745;28;20030;-71
2023/05/14 07:04:17;;;;;;;7.10;3.80;;;20.30;86.10;;;;;;5011331;28;20080;-72
2023/05/14 07:06:43;;;;;;;8.00;3.75;;;20.30;86.10;;;;;;5011000;28;20045;-73
2023/05/14 07:09:09;;;;;;;4.63;3.22;;;20.20;86.20;;;;;;4993695;28;20099;-74
2023/05/14 07:11:35;;;;;;;4.68;3.70;;;20.10;85.90;;;;;;5011496;28;20087;-69
2023/05/14 07:14:00;;;;;;;5.65;3.70;;;20.10;86.40;;;;;;5011480;28;20037;-76
2023/05/14 07:16:26;;;;;;;4.93;3.20;;;20.20;86.60;;;;;;5011274;28;20030;-72
2023/05/14 07:18:52;;;;;;;5.60;3.67;;;20.20;85.60;;;;;;5010910;28;20045;-72
2023/05/14 07:21:18;;;;;;;7.82;3.53;;;20.20;85.20;;;;;;4993358;28;20029;-68
2023/05/14 07:23:43;;;;;;;5.82;3.45;;;20.30;84.90;;;;;;5010445;28;20488;-70
2023/05/14 07:26:09;;;;;;;5.50;3.50;;;20.30;85.30;;;;;;5011135;28;20061;-69
2023/05/14 07:28:35;;;;;;;4.80;2.80;;;20.40;85.30;;;;;;5010551;28;20029;-70
2023/05/14 07:31:03;;;;;;;6.47;3.42;;;20.50;85.70;;;;;;5010790;28;20376;-70
2023/05/14 07:33:29;;;;;;;4.53;2.95;;;20.50;84.60;;;;;;5010452;28;20030;-71
2023/05/14 07:35:54;;;;;;;7.28;2.97;;;20.50;84.40;;;;;;4991197;28;20387;-70
2023/05/14 07:38:20;;;;;;;5.85;3.80;;;20.50;83.50;;;;;;4991594;28;20030;-70
2023/05/14 07:40:46;;;;;;;5.90;3.85;;;20.50;83.40;;;;;;4990867;28;20030;-71
2023/05/14 07:43:13;;;;;;;6.88;3.33;;;20.40;83.90;;;;;;4990882;28;20057;-72
2023/05/14 07:45:39;;;;;;;9.27;3.45;;;20.50;84.30;;;;;;4990775;28;20031;-71
2023/05/14 07:48:04;;;;;;;3.85;2.65;;;20.30;83.90;;;;;;4990720;28;20441;-69
2023/05/14 07:50:30;;;;;;;4.38;3.35;;;20.30;83.60;;;;;;4991314;28;20133;-70
2023/05/14 07:52:56;;;;;;;8.07;3.15;;;20.50;83.20;;;;;;4990908;28;20435;-72
2023/05/14 07:55:22;;;;;;;4.75;3.08;;;20.60;82.70;;;;;;4990946;28;20197;-70
2023/05/14 07:57:48;;;;;;;9.05;3.33;;;20.80;83.60;;;;;;4991662;28;20065;-70
2023/05/14 08:00:14;;;;;;;4.45;3.15;;;20.80;82.90;;;;;;4994769;28;20026;-70
2023/05/14 08:02:41;;;;;;;5.00;2.70;;;21.10;82.50;;;;;;4994755;28;20027;-70
2023/05/14 08:05:07;;;;;;;5.38;3.30;;;21.30;81.30;;;;;;4995398;28;20449;-72
2023/05/14 08:07:33;;;;;;;3.83;3.00;;;21.60;80.20;;;;;;4994812;28;20026;-73
2023/05/14 08:09:59;;;;;;;5.35;2.92;;;22.00;80.80;;;;;;4994599;28;20368;-69
2023/05/14 08:12:25;;;;;;;6.28;3.03;;;22.20;79.20;;;;;;4994603;28;20443;-70
2023/05/14 08:14:51;;;;;;;5.82;3.00;;;22.20;79.10;;;;;;4994590;28;20436;-72
2023/05/14 08:17:17;;;;;;;4.50;3.13;;;23.20;79.70;;;;;;4995132;28;20029;-72
2023/05/14 08:19:43;;;;;;;4.50;2.70;;;23.80;79.10;;;;;;4994385;28;20065;-71
2023/05/14 08:22:09;;;;;;;4.38;2.90;;;24.90;77.00;;;;;;4994421;28;20026;-70
2023/05/14 08:24:34;;;;;;;4.50;2.47;;;26.00;73.80;;;;;;4994633;28;20050;-70
2023/05/14 08:27:01;;;;;;;2.85;2.28;;;27.00;71.20;;;;;;4994357;28;20114;-70
2023/05/14 08:29:26;;;;;;;4.40;2.58;;;27.80;68.60;;;;;;4994817;28;20096;-73
2023/05/14 08:31:52;;;;;;;3.60;2.60;;;28.20;65.60;;;;;;4994490;28;20464;-72
2023/05/14 08:34:18;;;;;;;3.63;2.38;;;28.20;64.00;;;;;;4994122;28;20093;-74
2023/05/14 08:36:43;;;;;;;6.10;2.80;;;28.40;62.00;;;;;;4994341;28;20030;-72
2023/05/14 08:39:09;;;;;;;4.97;2.50;;;28.90;59.40;;;;;;4998239;28;20056;-71
2023/05/14 08:41:36;;;;;;;4.07;2.38;;;29.40;59.40;;;;;;4996653;28;20025;-71
2023/05/14 08:44:19;;;;;;;3.97;2.85;;;29.80;57.50;;;;;;5013631;28;20177;-68
2023/05/14 08:46:45;;;;;;;5.38;2.58;;;30.00;56.80;;;;;;5013558;28;20037;-72
2023/05/14 08:49:29;;;;;;;4.18;2.38;;;30.40;56.30;;;;;;5013365;28;20037;-74
2023/05/14 08:51:56;;;;;;;5.55;2.30;;;30.80;55.80;;;;;;5013136;28;20030;-74
2023/05/14 08:54:24;;;;;;;5.93;2.88;;;31.10;52.60;;;;;;5013538;28;20033;-74
2023/05/14 08:56:50;;;;;;;4.88;2.28;;;31.40;51.80;;;;;;5013556;28;20318;-74
2023/05/14 08:59:16;;;;;;;2.35;2.05;;;31.80;49.10;;;;;;5013934;28;20018;-72
2023/05/14 09:01:46;;;;;;;4.95;2.35;;;31.70;49.60;;;;;;5013644;28;20172;-75
2023/05/14 09:04:15;;;;;;;3.35;2.45;;;31.60;48.10;;;;;;5013484;28;20050;-75
2023/05/14 09:06:42;;;;;;;5.28;3.00;;;32.30;47.90;;;;;;4995919;28;20034;-74
2023/05/14 09:09:09;;;;;;;6.15;2.60;;;32.30;46.10;;;;;;5012753;28;20034;-75
2023/05/14 09:11:50;;;;;;;2.53;2.10;;;31.80;45.80;;;;;;5013910;28;20048;-76
2023/05/14 09:14:16;;;;;;;3.13;2.20;;;31.80;45.70;;;;;;5014063;28;20324;-76
2023/05/14 09:16:46;;;;;;;3.45;2.38;;;31.80;45.90;;;;;;5013181;28;20085;-75
2023/05/14 09:19:13;;;;;;;4.15;2.40;;;32.30;45.60;;;;;;5013406;28;20068;-77
2023/05/14 09:21:39;;;;;;;5.32;2.40;;;32.70;44.10;;;;;;5013118;28;20034;-77
2023/05/14 09:24:05;;;;;;;5.85;2.53;;;32.90;43.90;;;;;;5012877;28;20418;-73
2023/05/14 09:26:33;;;;;;;5.00;2.75;;;33.20;43.70;;;;;;5013486;28;20516;-74
2023/05/14 09:29:00;;;;;;;;;;;33.10;43.70;;;;;;5013299;28;20037;-75
2023/05/14 09:31:26;;;;;;;;;;;32.70;42.90;;;;;;4992399;28;20051;-73
2023/05/14 09:33:52;;;;;;;5.50;2.58;;;32.00;43.80;;;;;;4993417;28;19951;-76
2023/05/14 09:36:18;;;;;;;3.70;2.58;;;31.80;43.90;;;;;;5008466;28;20680;-75
2023/05/14 09:38:44;;;;;;;5.03;2.35;;;31.50;43.40;;;;;;4992931;28;20086;-76
2023/05/14 09:41:10;;;;;;;4.38;2.80;;;31.60;43.40;;;;;;4994010;28;20039;-72
2023/05/14 09:43:36;;;;;;;2.55;1.98;;;31.00;43.60;;;;;;4993167;28;20352;-75
2023/05/14 09:46:02;;;;;;;2.38;2.17;;;30.80;44.80;;;;;;4993185;28;20056;-75
2023/05/14 09:48:28;;;;;;;3.60;2.28;;;30.90;44.50;;;;;;4993107;28;20089;-75
2023/05/14 09:50:53;;;;;;;6.72;2.38;;;30.40;44.60;;;;;;4993053;28;20096;-73
2023/05/14 09:53:19;;;;;;;7.95;2.78;;;30.80;43.80;;;;;;4993273;28;20392;-76
2023/05/14 09:55:45;;;;;;;2.88;2.05;;;30.60;43.70;;;;;;4992752;28;20072;-73
2023/05/14 09:58:14;;;;;;;3.28;2.20;;;30.10;44.40;;;;;;4992607;28;20522;-72
2023/05/14 10:00:44;;;;;;;4.15;2.50;;;29.30;45.20;;;;;;4992549;28;20125;-74
2023/05/14 10:03:13;;;;;;;8.98;2.55;;;29.20;45.20;;;;;;4992469;28;20038;-72
2023/05/14 10:05:43;;;;;;;4.22;2.55;;;28.70;45.40;;;;;;4992614;28;20041;-74
2023/05/14 10:08:18;;;;;;;3.03;2.45;;;28.60;45.80;;;;;;4992346;28;20150;-73
2023/05/14 10:10:44;;;;;;;2.67;2.20;;;28.40;46.70;;;;;;4992177;28;20030;-72
2023/05/14 10:13:13;;;;;;;5.95;2.38;;;28.20;46.70;;;;;;4992753;28;20030;-70
2023/05/14 10:15:45;;;;;;;7.40;2.60;;;28.00;46.90;;;;;;4992285;28;20035;-72
2023/05/14 10:18:16;;;;;;;5.85;3.03;;;27.50;47.90;;;;;;4992159;28;20113;-67
2023/05/14 10:20:42;;;;;;;4.15;2.20;;;27.40;48.70;;;;;;4991588;28;20030;-70
2023/05/14 10:23:09;;;;;;;3.35;2.28;;;27.20;48.30;;;;;;4991988;28;20374;-70
2023/05/14 10:25:35;;;;;;;7.40;2.60;;;26.90;49.60;;;;;;4991913;28;20166;-70
2023/05/14 10:28:02;;;;;;;5.03;3.97;;;26.70;49.90;;;;;;5007274;28;20352;-71
2023/05/14 10:30:27;;;;;;;5.97;3.40;;;26.70;49.20;;;;;;4998978;28;20045;-71
2023/05/14 10:33:12;;;;;;;5.13;2.70;;;26.80;48.40;;;;;;5011481;28;20502;-72
2023/05/14 10:36:10;;;;;;;4.68;2.38;;;26.50;48.90;;;;;;5010919;28;20131;-72
2023/05/14 10:38:37;;;;;;;5.15;2.90;;;26.60;48.70;;;;;;4961663;28;20350;-73
2023/05/14 10:41:03;;;;;;;4.93;2.47;;;26.30;48.80;;;;;;5012564;28;20091;-73
2023/05/14 10:43:30;;;;;;;4.18;2.60;;;26.10;49.30;;;;;;5011127;28;20521;-73
2023/05/14 10:45:57;;;;;;;5.07;2.80;;;26.30;49.90;;;;;;5010105;28;20069;-73
2023/05/14 10:48:23;;;;;;;18.02;4.25;;;26.30;49.50;;;;;;5010165;28;20483;-72
2023/05/14 10:50:50;;;;;;;4.05;2.78;;;26.30;50.90;;;;;;5011295;28;20456;-73
2023/05/14 10:53:16;;;;;;;6.38;3.10;;;26.20;50.20;;;;;;5011530;28;20022;-71
2023/05/14 10:55:43;;;;;;;3.53;2.50;;;26.00;49.50;;;;;;5011235;28;20041;-71
2023/05/14 10:58:12;;;;;;;4.60;2.67;;;26.10;50.50;;;;;;5010032;28;20040;-75
2023/05/14 11:00:38;;;;;;;5.30;2.72;;;26.10;50.30;;;;;;5011118;28;20041;-73
2023/05/14 11:03:07;;;;;;;7.32;3.20;;;25.70;49.90;;;;;;4993492;28;20040;-74
2023/05/14 11:05:35;;;;;;;7.22;3.17;;;25.60;50.70;;;;;;4994150;28;20521;-74
2023/05/14 11:08:06;;;;;;;4.78;2.92;;;25.40;50.90;;;;;;5011181;28;20038;-74
2023/05/14 11:10:34;;;;;;;7.80;3.10;;;25.30;50.60;;;;;;5011093;28;20030;-73
2023/05/14 11:13:00;;;;;;;3.88;2.90;;;25.10;51.20;;;;;;5011083;28;20026;-74
2023/05/14 11:15:27;;;;;;;7.10;2.95;;;25.00;51.10;;;;;;5011625;28;20026;-76
2023/05/14 11:17:53;;;;;;;4.75;3.33;;;25.10;50.60;;;;;;5010898;28;20040;-71
2023/05/14 11:20:20;;;;;;;6.82;3.85;;;24.90;49.60;;;;;;5011513;28;20507;-74
2023/05/14 11:22:47;;;;;;;5.22;3.58;;;25.00;51.00;;;;;;5010527;28;20026;-72
2023/05/14 11:25:13;;;;;;;9.07;3.28;;;25.00;51.30;;;;;;5010753;28;20041;-72
2023/05/14 11:27:41;;;;;;;5.70;3.60;;;24.90;50.90;;;;;;5011254;28;20143;-73
2023/05/14 11:30:15;;;;;;;5.95;2.95;;;24.80;51.00;;;;;;5010854;28;20034;-75
2023/05/14 11:32:44;;;;;;;5.47;2.63;;;24.90;51.00;;;;;;5011443;28;20018;-73
2023/05/14 11:35:10;;;;;;;3.75;2.47;;;25.10;51.20;;;;;;5011439;28;20047;-72
2023/05/14 11:37:35;;;;;;;9.25;3.42;;;25.20;51.30;;;;;;5010990;28;20088;-71
2023/05/14 11:40:01;;;;;;;5.20;2.30;;;24.90;51.10;;;;;;5011025;28;20495;-71
2023/05/14 11:42:27;;;;;;;4.22;3.00;;;24.90;52.10;;;;;;5010418;28;20033;-70
2023/05/14 11:44:53;;;;;;;5.22;3.13;;;24.70;52.10;;;;;;5010464;28;20026;-71
2023/05/14 11:47:20;;;;;;;4.35;2.47;;;24.50;52.00;;;;;;5011096;28;20022;-68
2023/05/14 11:49:47;;;;;;;5.18;2.80;;;24.60;52.80;;;;;;5010206;28;20041;-71
2023/05/14 11:52:14;;;;;;;4.38;3.05;;;24.40;52.80;;;;;;5010396;28;20023;-72
2023/05/14 11:54:41;;;;;;;7.28;2.55;;;24.50;52.90;;;;;;5010819;28;20087;-71
2023/05/14 11:57:18;;;;;;;7.35;3.50;;;24.50;52.70;;;;;;5010357;28;20053;-72
2023/05/14 11:59:44;;;;;;;5.75;2.72;;;24.50;52.40;;;;;;5010722;28;20072;-69
2023/05/14 12:02:11;;;;;;;4.65;3.00;;;24.70;51.00;;;;;;5010820;28;20045;-71
2023/05/14 12:04:38;;;;;;;3.67;2.60;;;24.60;50.40;;;;;;5010213;28;20152;-71
2023/05/14 12:07:12;;;;;;;6.78;2.70;;;24.50;49.70;;;;;;5010312;28;20030;-72
2023/05/14 12:09:48;;;;;;;7.78;2.58;;;24.30;48.40;;;;;;5010274;28;20049;-69
2023/05/14 12:12:18;;;;;;;6.60;2.65;;;24.40;49.10;;;;;;5010104;28;20044;-73
2023/05/14 12:14:44;;;;;;;3.53;2.67;;;24.30;49.50;;;;;;5009974;28;20460;-69
2023/05/14 12:17:20;;;;;;;6.70;2.75;;;24.20;49.20;;;;;;5010988;28;20026;-70
2023/05/14 12:19:52;;;;;;;4.65;2.67;;;24.20;50.10;;;;;;5010090;28;20030;-71
2023/05/14 12:22:21;;;;;;;5.90;2.83;;;24.00;50.00;;;;;;5009878;28;20030;-70
2023/05/14 12:24:55;;;;;;;9.27;3.20;;;24.20;50.60;;;;;;5009707;28;20474;-71
2023/05/14 12:27:23;;;;;;;4.57;3.10;;;23.90;50.90;;;;;;5009894;28;20045;-71
2023/05/14 12:29:52;;;;;;;4.78;2.80;;;24.00;51.90;;;;;;5009862;28;20475;-73
2023/05/14 12:32:18;;;;;;;8.02;3.38;;;24.20;52.20;;;;;;5010863;28;20044;-71
2023/05/14 12:34:44;;;;;;;7.68;3.15;;;24.40;52.10;;;;;;5010155;28;20045;-72
2023/05/14 12:37:10;;;;;;;5.60;3.35;;;24.20;51.70;;;;;;5010035;28;20034;-70
2023/05/14 12:39:36;;;;;;;5.90;3.08;;;24.20;52.60;;;;;;5009874;28;20109;-69
2023/05/14 12:42:02;;;;;;;7.95;3.25;;;24.10;52.50;;;;;;5009735;28;20033;-68
2023/05/14 12:44:28;;;;;;;4.28;3.25;;;23.90;52.10;;;;;;5010740;28;20049;-70